createdAt,value
2024-03-07T00:01:06.724Z,27.27
2024-03-07T00:03:33.551Z,27.80
2024-03-07T00:06:02.058Z,30.10
2024-03-07T00:08:29.008Z,29.20
2024-03-07T00:10:56.908Z,37.27
2024-03-07T00:13:23.831Z,32.93
2024-03-07T00:15:50.758Z,35.27
2024-03-07T00:18:17.639Z,34.07
2024-03-07T00:20:44.655Z,37.67
2024-03-07T00:23:12.166Z,36.70
2024-03-07T00:25:39.086Z,34.77
2024-03-07T00:28:06.386Z,29.73
2024-03-07T00:30:35.049Z,36.63
2024-03-07T00:33:02.125Z,40.43
2024-03-07T00:35:29.209Z,39.53
2024-03-07T00:37:56.065Z,36.13
2024-03-07T00:40:23.043Z,36.87
2024-03-07T00:42:49.989Z,34.90
2024-03-07T00:45:16.842Z,35.60
2024-03-07T00:47:43.995Z,37.23
2024-03-07T00:50:11.369Z,37.93
2024-03-07T00:52:39.240Z,31.67
2024-03-07T00:55:09.887Z,38.07
2024-03-07T00:57:37.441Z,34.37
2024-03-07T01:00:04.546Z,33.83
2024-03-07T01:02:32.039Z,37.20
2024-03-07T01:04:59.362Z,38.87
2024-03-07T01:07:26.254Z,34.50
2024-03-07T01:09:53.228Z,35.27
2024-03-07T01:12:23.654Z,38.40
2024-03-07T01:14:50.697Z,36.70
2024-03-07T01:17:17.742Z,35.13
2024-03-07T01:19:44.640Z,39.60
2024-03-07T01:22:11.530Z,42.17
2024-03-07T01:24:38.689Z,41.93
2024-03-07T01:27:05.606Z,44.23
2024-03-07T01:29:32.531Z,44.67
2024-03-07T01:31:59.588Z,51.50
2024-03-07T01:34:26.467Z,50.07
2024-03-07T01:36:53.393Z,46.67
2024-03-07T01:39:20.748Z,38.53
2024-03-07T01:41:49.207Z,40.53
2024-03-07T01:44:16.319Z,47.63
2024-03-07T01:46:43.219Z,45.50
2024-03-07T01:49:10.701Z,55.17
2024-03-07T01:51:39.382Z,48.27
2024-03-07T01:54:08.956Z,54.17
2024-03-07T01:56:37.804Z,50.03
2024-03-07T01:59:06.488Z,45.40
2024-03-07T02:01:34.642Z,42.90
2024-03-07T02:04:01.602Z,49.30
2024-03-07T02:06:29.878Z,44.27
2024-03-07T02:08:58.013Z,43.30
2024-03-07T02:11:25.055Z,38.50
2024-03-07T02:13:52.351Z,38.37
2024-03-07T02:16:19.643Z,36.47
2024-03-07T02:18:46.876Z,44.10
2024-03-07T02:21:14.718Z,39.73
2024-03-07T02:23:42.279Z,42.77
2024-03-07T02:26:09.676Z,45.77
2024-03-07T02:28:36.807Z,44.30
2024-03-07T02:31:03.812Z,40.90
2024-03-07T02:33:33.422Z,43.07
2024-03-07T02:36:00.782Z,39.80
2024-03-07T02:38:27.712Z,37.03
2024-03-07T02:40:54.597Z,38.97
2024-03-07T02:43:22.428Z,37.30
2024-03-07T02:45:51.026Z,45.63
2024-03-07T02:48:19.746Z,37.43
2024-03-07T02:50:46.831Z,38.80
2024-03-07T02:53:13.770Z,40.60
2024-03-07T02:55:40.659Z,43.37
2024-03-07T02:58:08.358Z,43.33
2024-03-07T03:00:36.089Z,39.77
2024-03-07T03:03:03.188Z,40.13
2024-03-07T03:05:31.054Z,39.47
2024-03-07T03:07:58.019Z,38.67
2024-03-07T03:10:34.340Z,42.80
2024-03-07T03:13:02.524Z,41.93
2024-03-07T03:15:30.683Z,43.30
2024-03-07T03:18:02.170Z,38.70
2024-03-07T03:20:35.585Z,40.40
2024-03-07T03:23:15.272Z,38.23
2024-03-07T03:25:49.616Z,42.47
2024-03-07T03:28:18.061Z,45.57
2024-03-07T03:30:45.226Z,44.20
2024-03-07T03:33:12.718Z,42.57
2024-03-07T03:35:40.621Z,37.10
2024-03-07T03:38:08.688Z,39.93
2024-03-07T03:40:36.591Z,43.23
2024-03-07T03:43:04.057Z,37.57
2024-03-07T03:45:33.221Z,43.87
2024-03-07T03:48:00.374Z,40.13
2024-03-07T03:50:27.738Z,45.20
2024-03-07T03:52:54.703Z,42.03
2024-03-07T03:55:22.226Z,42.17
2024-03-07T03:57:50.111Z,41.00
2024-03-07T04:00:17.878Z,42.87
2024-03-07T04:02:49.158Z,39.47
2024-03-07T04:05:18.500Z,42.10
2024-03-07T04:07:45.597Z,43.20
2024-03-07T04:10:13.656Z,38.47
2024-03-07T04:12:42.271Z,41.33
2024-03-07T04:15:11.326Z,40.37
2024-03-07T04:17:39.594Z,38.30
2024-03-07T04:20:08.072Z,37.27
2024-03-07T04:22:35.996Z,34.27
2024-03-07T04:25:03.493Z,34.83
2024-03-07T04:27:30.451Z,33.80
2024-03-07T04:29:57.716Z,31.53
2024-03-07T04:32:24.991Z,32.03
2024-03-07T04:34:51.894Z,35.67
2024-03-07T04:37:18.920Z,32.13
2024-03-07T04:39:46.985Z,37.03
2024-03-07T04:42:13.986Z,39.03
2024-03-07T04:44:41.013Z,37.40
2024-03-07T04:47:08.755Z,40.23
2024-03-07T04:49:36.388Z,38.97
2024-03-07T04:52:04.775Z,39.43
2024-03-07T04:54:35.664Z,38.57
2024-03-07T04:57:03.253Z,36.53
2024-03-07T04:59:30.616Z,40.00
2024-03-07T05:01:58.852Z,42.07
2024-03-07T05:04:25.841Z,36.40
2024-03-07T05:06:52.705Z,39.10
2024-03-07T05:09:27.497Z,39.73
2024-03-07T05:11:55.187Z,40.07
2024-03-07T05:14:26.829Z,42.50
2024-03-07T05:17:12.076Z,37.00
2024-03-07T05:19:39.061Z,37.00
2024-03-07T05:22:06.295Z,40.50
2024-03-07T05:24:35.183Z,38.07
2024-03-07T05:27:02.619Z,39.43
2024-03-07T05:29:29.642Z,43.03
2024-03-07T05:31:56.726Z,36.40
2024-03-07T05:34:24.709Z,40.40
2024-03-07T05:36:52.769Z,43.40
2024-03-07T05:39:20.168Z,39.40
2024-03-07T05:41:47.645Z,42.53
2024-03-07T05:44:15.235Z,43.30
2024-03-07T05:46:47.750Z,51.30
2024-03-07T05:49:15.813Z,56.10
2024-03-07T05:51:46.508Z,48.03
2024-03-07T05:54:14.440Z,55.33
2024-03-07T05:56:42.585Z,56.13
2024-03-07T05:59:13.254Z,48.00
2024-03-07T06:01:40.692Z,50.70
2024-03-07T06:04:08.380Z,48.47
2024-03-07T06:06:37.113Z,46.17
2024-03-07T06:09:11.186Z,46.60
2024-03-07T06:11:40.092Z,43.83
2024-03-07T06:14:08.349Z,43.80
2024-03-07T06:16:39.786Z,46.53
2024-03-07T06:19:11.888Z,49.40
2024-03-07T06:21:41.008Z,43.77
2024-03-07T06:24:09.761Z,41.73
2024-03-07T06:26:38.857Z,37.87
2024-03-07T06:29:09.452Z,40.40
2024-03-07T06:31:36.378Z,38.53
2024-03-07T06:34:03.823Z,37.80
2024-03-07T06:36:31.082Z,39.90
2024-03-07T06:38:58.093Z,39.80
2024-03-07T06:41:26.531Z,43.93
2024-03-07T06:43:56.242Z,39.40
2024-03-07T06:46:23.242Z,44.73
2024-03-07T06:48:50.211Z,43.87
2024-03-07T06:51:19.300Z,44.70
2024-03-07T06:53:48.045Z,45.60
2024-03-07T06:56:15.837Z,53.23
2024-03-07T06:58:43.437Z,50.53
2024-03-07T07:01:13.350Z,49.03
2024-03-07T07:03:40.417Z,52.53
2024-03-07T07:06:07.503Z,56.90
2024-03-07T07:08:34.835Z,58.93
2024-03-07T07:11:01.905Z,58.50
2024-03-07T07:13:28.852Z,55.67
2024-03-07T07:15:55.689Z,52.03
2024-03-07T07:18:25.196Z,61.53
2024-03-07T07:20:53.251Z,65.47
2024-03-07T07:23:21.232Z,61.43
2024-03-07T07:25:48.453Z,61.47
2024-03-07T07:28:16.610Z,61.23
2024-03-07T07:30:45.695Z,55.67
2024-03-07T07:33:13.771Z,56.33
2024-03-07T07:35:42.128Z,54.73
2024-03-07T07:38:11.853Z,54.17
2024-03-07T07:40:39.717Z,56.30
2024-03-07T07:43:07.187Z,53.57
2024-03-07T07:45:36.979Z,49.03
2024-03-07T07:48:04.508Z,45.30
2024-03-07T07:50:31.785Z,50.07
2024-03-07T07:52:59.737Z,44.53
2024-03-07T07:55:30.466Z,46.10
2024-03-07T07:57:58.969Z,40.03
2024-03-07T08:00:30.897Z,47.07
2024-03-07T08:03:04.663Z,43.67
2024-03-07T08:05:33.872Z,42.23
2024-03-07T08:08:09.350Z,43.63
2024-03-07T08:10:38.567Z,44.23
2024-03-07T08:13:14.354Z,39.37
2024-03-07T08:15:41.601Z,39.07
2024-03-07T08:18:12.227Z,39.23
2024-03-07T08:20:41.831Z,30.47
2024-03-07T08:23:10.029Z,33.30
2024-03-07T08:25:37.352Z,33.40
2024-03-07T08:28:06.515Z,35.53
2024-03-07T08:30:33.761Z,35.97
2024-03-07T08:33:03.488Z,37.73
2024-03-07T08:35:30.724Z,34.17
2024-03-07T08:37:58.854Z,32.80
2024-03-07T08:40:32.411Z,33.07
2024-03-07T08:43:00.739Z,31.90
2024-03-07T08:45:28.376Z,33.77
2024-03-07T08:47:57.457Z,31.93
2024-03-07T08:50:26.152Z,33.40
2024-03-07T08:52:53.792Z,39.90
2024-03-07T08:55:23.662Z,31.17
2024-03-07T08:57:51.062Z,28.13
2024-03-07T09:00:26.647Z,34.37
2024-03-07T09:03:01.416Z,30.83
2024-03-07T09:05:30.619Z,28.90
2024-03-07T09:07:57.950Z,32.57
2024-03-07T09:10:30.822Z,31.87
2024-03-07T09:12:58.372Z,30.00
2024-03-07T09:15:25.491Z,32.93
2024-03-07T09:17:54.082Z,30.13
2024-03-07T09:20:21.962Z,28.30
2024-03-07T09:22:50.281Z,27.70
2024-03-07T09:25:18.536Z,28.77
2024-03-07T09:27:46.197Z,26.70
2024-03-07T09:30:15.903Z,28.30
2024-03-07T09:32:43.584Z,28.80
2024-03-07T09:35:15.480Z,29.50
2024-03-07T09:37:43.762Z,30.23
2024-03-07T09:40:15.177Z,26.23
2024-03-07T09:42:49.345Z,27.17
2024-03-07T09:45:18.375Z,27.10
2024-03-07T09:47:50.117Z,27.20
2024-03-07T09:50:24.896Z,25.47
2024-03-07T09:52:54.829Z,25.57
2024-03-07T09:55:26.415Z,25.20
2024-03-07T09:57:56.378Z,25.20
2024-03-07T10:00:24.668Z,26.00
2024-03-07T10:03:03.020Z,25.27
2024-03-07T10:05:31.575Z,22.33
2024-03-07T10:07:59.043Z,24.40
2024-03-07T10:10:25.971Z,24.43
2024-03-07T10:12:58.261Z,24.53
2024-03-07T10:15:33.063Z,21.33
2024-03-07T10:18:01.377Z,24.93
2024-03-07T10:20:29.010Z,21.30
2024-03-07T10:22:57.761Z,21.77
2024-03-07T10:25:29.796Z,21.23
2024-03-07T10:27:58.958Z,20.80
2024-03-07T10:30:26.817Z,21.70
2024-03-07T10:33:00.190Z,22.53
2024-03-07T10:35:29.825Z,25.30
2024-03-07T10:38:01.772Z,22.77
2024-03-07T10:40:29.309Z,23.27
2024-03-07T10:42:59.009Z,21.83
2024-03-07T10:45:30.012Z,19.77
2024-03-07T10:47:59.043Z,21.40
2024-03-07T10:50:57.062Z,22.70
2024-03-07T10:53:32.027Z,21.07
2024-03-07T10:56:08.833Z,21.30
2024-03-07T10:58:57.744Z,20.63
2024-03-07T11:01:26.786Z,20.93
2024-03-07T11:03:54.400Z,20.30
2024-03-07T11:06:22.321Z,21.57
2024-03-07T11:08:50.134Z,20.60
2024-03-07T11:11:17.279Z,22.13
2024-03-07T11:13:46.349Z,19.47
2024-03-07T11:16:15.851Z,22.30
2024-03-07T11:18:42.836Z,23.03
2024-03-07T11:21:41.880Z,24.27
2024-03-07T11:24:10.095Z,20.17
2024-03-07T11:26:37.069Z,20.30
2024-03-07T11:29:46.014Z,21.97
2024-03-07T11:32:19.049Z,22.60
2024-03-07T11:34:49.477Z,20.57
2024-03-07T11:37:42.160Z,20.53
2024-03-07T11:40:19.125Z,24.00
2024-03-07T11:42:50.313Z,22.03
2024-03-07T11:45:27.947Z,22.37
2024-03-07T11:48:08.095Z,20.90
2024-03-07T11:50:38.450Z,22.30
2024-03-07T11:53:07.412Z,24.13
2024-03-07T11:55:42.738Z,22.90
2024-03-07T11:58:33.035Z,25.50
2024-03-07T12:00:59.957Z,25.00
2024-03-07T12:03:28.250Z,22.50
2024-03-07T12:05:55.628Z,19.13
2024-03-07T12:08:24.875Z,21.37
2024-03-07T12:10:57.311Z,21.17
2024-03-07T12:13:26.118Z,21.77
2024-03-07T12:15:53.652Z,22.47
2024-03-07T12:18:22.217Z,20.27
2024-03-07T12:20:55.460Z,19.27
2024-03-07T12:23:27.834Z,18.67
2024-03-07T12:26:05.547Z,19.03
2024-03-07T12:28:36.867Z,18.77
2024-03-07T12:31:05.929Z,17.27
2024-03-07T12:33:40.576Z,19.40
2024-03-07T12:36:08.955Z,18.60
2024-03-07T12:38:38.803Z,20.53
2024-03-07T12:41:17.729Z,20.23
2024-03-07T12:43:48.653Z,22.73
2024-03-07T12:46:18.398Z,18.47
2024-03-07T12:48:46.748Z,18.03
2024-03-07T12:51:18.810Z,18.23
2024-03-07T12:53:47.909Z,17.53
2024-03-07T12:56:18.838Z,17.23
2024-03-07T12:58:47.689Z,17.93
2024-03-07T13:01:15.264Z,20.47
2024-03-07T13:03:45.671Z,19.60
2024-03-07T13:06:13.135Z,19.50
2024-03-07T13:08:41.479Z,19.63
2024-03-07T13:11:10.955Z,18.03
2024-03-07T13:13:38.277Z,22.43
2024-03-07T13:16:05.864Z,20.93
2024-03-07T13:18:35.955Z,18.37
2024-03-07T13:21:05.603Z,19.17
2024-03-07T13:23:34.298Z,23.80
2024-03-07T13:26:09.752Z,24.03
2024-03-07T13:28:36.905Z,20.07
2024-03-07T13:31:04.775Z,20.07
2024-03-07T13:33:32.085Z,20.20
2024-03-07T13:35:59.255Z,22.27
2024-03-07T13:38:27.389Z,21.00
2024-03-07T13:40:54.576Z,17.87
2024-03-07T13:43:21.483Z,19.23
2024-03-07T13:45:49.450Z,17.27
2024-03-07T13:48:18.821Z,21.10
2024-03-07T13:50:55.634Z,18.97
2024-03-07T13:53:27.745Z,20.60
2024-03-07T13:56:15.792Z,18.67
2024-03-07T13:59:03.941Z,18.53
2024-03-07T14:02:00.988Z,20.57
2024-03-07T14:05:13.946Z,21.83
2024-03-07T14:07:53.143Z,18.83
2024-03-07T14:10:40.984Z,23.93
2024-03-07T14:13:23.291Z,22.57
2024-03-07T14:16:02.019Z,20.43
2024-03-07T14:19:06.555Z,21.90
2024-03-07T14:21:39.001Z,21.70
2024-03-07T14:24:40.166Z,19.37
2024-03-07T14:27:33.490Z,21.20
2024-03-07T14:30:25.524Z,16.63
2024-03-07T14:32:57.746Z,19.80
2024-03-07T14:35:40.252Z,19.07
2024-03-07T14:38:07.153Z,20.83
2024-03-07T14:40:34.495Z,18.73
2024-03-07T14:43:06.104Z,18.40
2024-03-07T14:45:42.001Z,20.00
2024-03-07T14:48:15.804Z,19.80
2024-03-07T14:50:44.121Z,19.13
2024-03-07T14:53:12.627Z,17.67
2024-03-07T14:55:41.825Z,20.70
2024-03-07T14:58:10.866Z,18.27
2024-03-07T15:00:49.639Z,19.13
2024-03-07T15:03:24.951Z,20.47
2024-03-07T15:05:53.069Z,21.80
2024-03-07T15:08:23.998Z,20.83
2024-03-07T15:11:00.337Z,18.10
2024-03-07T15:13:27.380Z,17.57
2024-03-07T15:15:55.866Z,21.50
2024-03-07T15:18:23.407Z,20.50
2024-03-07T15:20:50.515Z,18.00
2024-03-07T15:23:17.476Z,18.13
2024-03-07T15:25:44.352Z,17.47
2024-03-07T15:28:11.343Z,23.23
2024-03-07T15:30:39.911Z,20.13
2024-03-07T15:33:06.957Z,19.23
2024-03-07T15:35:34.403Z,19.20
2024-03-07T15:38:01.811Z,19.20
2024-03-07T15:40:29.206Z,22.60
2024-03-07T15:42:59.846Z,18.80
2024-03-07T15:45:26.893Z,19.80
2024-03-07T15:47:55.360Z,20.30
2024-03-07T15:50:23.246Z,21.00
2024-03-07T15:52:54.629Z,25.27
2024-03-07T15:55:25.812Z,24.00
2024-03-07T15:57:55.394Z,18.90
2024-03-07T16:00:27.239Z,20.40
2024-03-07T16:03:01.620Z,20.43
2024-03-07T16:05:31.485Z,26.40
2024-03-07T16:07:59.947Z,21.53
2024-03-07T16:10:30.273Z,22.33
2024-03-07T16:12:58.160Z,21.43
2024-03-07T16:15:35.777Z,24.07
2024-03-07T16:18:10.687Z,23.47
2024-03-07T16:20:38.782Z,24.00
2024-03-07T16:23:06.214Z,21.57
2024-03-07T16:25:40.593Z,23.90
2024-03-07T16:28:08.719Z,23.07
2024-03-07T16:30:36.834Z,24.43
2024-03-07T16:33:05.361Z,23.60
2024-03-07T16:35:33.415Z,26.77
2024-03-07T16:38:01.201Z,28.52
2024-03-07T16:40:30.126Z,24.17
2024-03-07T16:43:02.369Z,25.70
2024-03-07T16:45:31.577Z,25.30
2024-03-07T16:48:01.627Z,25.27
2024-03-07T16:50:31.352Z,22.57
2024-03-07T16:53:03.218Z,27.63
2024-03-07T16:55:31.003Z,24.67
2024-03-07T17:00:28.245Z,24.30
2024-03-07T17:03:07.386Z,21.20
2024-03-07T17:05:40.429Z,24.73
2024-03-07T17:08:08.261Z,26.67
2024-03-07T17:10:40.140Z,25.27
2024-03-07T17:13:10.944Z,26.90
2024-03-07T17:15:39.209Z,23.17
2024-03-07T17:18:07.087Z,26.40
2024-03-07T17:20:34.432Z,29.27
2024-03-07T17:23:01.477Z,25.90
2024-03-07T17:25:31.407Z,26.60
2024-03-07T17:27:58.677Z,31.27
2024-03-07T17:30:26.882Z,24.03
2024-03-07T17:32:54.252Z,27.13
2024-03-07T17:35:21.509Z,25.73
2024-03-07T17:37:51.376Z,31.37
2024-03-07T17:40:21.358Z,25.93
2024-03-07T17:42:51.433Z,22.97
2024-03-07T17:45:23.582Z,31.77
2024-03-07T17:47:54.263Z,27.63
2024-03-07T17:50:32.268Z,31.33
2024-03-07T17:53:02.111Z,25.83
2024-03-07T17:55:33.421Z,27.07
2024-03-07T17:58:04.834Z,29.37
2024-03-07T18:00:33.524Z,27.03
2024-03-07T18:03:06.777Z,28.33
2024-03-07T18:05:38.381Z,28.57
2024-03-07T18:08:21.479Z,27.33
2024-03-07T18:10:57.155Z,29.30
2024-03-07T18:13:24.775Z,29.37
2024-03-07T18:15:51.755Z,29.73
2024-03-07T18:18:19.600Z,32.83
2024-03-07T18:20:47.462Z,23.90
2024-03-07T18:23:15.617Z,31.30
2024-03-07T18:25:43.308Z,29.27
2024-03-07T18:28:10.984Z,27.93
2024-03-07T18:30:38.191Z,29.90
2024-03-07T18:33:06.400Z,28.07
2024-03-07T18:35:34.963Z,33.83
2024-03-07T18:38:02.908Z,29.67
2024-03-07T18:40:30.663Z,27.83
2024-03-07T18:42:59.538Z,30.80
2024-03-07T18:45:28.624Z,33.13
2024-03-07T18:47:57.618Z,34.37
2024-03-07T18:50:27.230Z,31.20
2024-03-07T18:52:57.246Z,35.47
2024-03-07T18:55:31.225Z,32.13
2024-03-07T18:58:03.542Z,34.30
2024-03-07T19:00:32.721Z,37.47
2024-03-07T19:03:09.386Z,38.80
2024-03-07T19:05:47.781Z,40.53
2024-03-07T19:08:21.165Z,36.03
2024-03-07T19:10:49.897Z,37.33
2024-03-07T19:13:20.774Z,36.13
2024-03-07T19:16:02.147Z,38.73
2024-03-07T19:18:29.679Z,32.13
2024-03-07T19:20:56.731Z,34.73
2024-03-07T19:23:25.902Z,37.50
2024-03-07T19:25:53.331Z,37.03
2024-03-07T19:28:20.339Z,37.20
2024-03-07T19:30:51.564Z,37.20
2024-03-07T19:33:19.933Z,35.33
2024-03-07T19:35:51.829Z,29.43
2024-03-07T19:38:19.696Z,34.77
2024-03-07T19:40:47.292Z,32.60
2024-03-07T19:43:15.859Z,33.60
2024-03-07T19:45:45.234Z,30.50
2024-03-07T19:48:13.502Z,33.60
2024-03-07T19:50:43.119Z,32.13
2024-03-07T19:53:15.837Z,35.33
2024-03-07T19:55:46.217Z,33.85
2024-03-07T19:58:14.447Z,36.95
2024-03-07T20:00:46.043Z,26.53
2024-03-07T20:03:22.276Z,31.83
2024-03-07T20:05:50.760Z,32.73
2024-03-07T20:08:19.022Z,31.90
2024-03-07T20:10:49.506Z,31.47
2024-03-07T20:13:17.795Z,29.53
2024-03-07T20:15:46.279Z,40.70
2024-03-07T20:18:14.861Z,32.77
2024-03-07T20:20:45.476Z,34.80
2024-03-07T20:23:17.118Z,32.00
2024-03-07T20:25:45.535Z,32.27
2024-03-07T20:28:14.025Z,31.43
2024-03-07T20:30:43.223Z,32.47
2024-03-07T20:33:10.708Z,33.33
2024-03-07T20:35:37.862Z,32.90
2024-03-07T20:38:06.286Z,31.70
2024-03-07T20:40:33.616Z,30.23
2024-03-07T20:43:00.803Z,31.87
2024-03-07T20:45:27.850Z,34.53
2024-03-07T20:47:55.104Z,32.47
2024-03-07T20:50:25.474Z,33.40
2024-03-07T20:52:54.479Z,30.70
2024-03-07T20:55:28.349Z,32.67
2024-03-07T20:57:59.268Z,34.37
2024-03-07T21:00:31.877Z,33.17
2024-03-07T21:02:58.972Z,27.70
2024-03-07T21:05:26.095Z,31.80
2024-03-07T21:07:54.537Z,33.27
2024-03-07T21:10:29.408Z,32.07
2024-03-07T21:12:56.671Z,33.27
2024-03-07T21:15:23.681Z,34.30
2024-03-07T21:17:51.484Z,38.43
2024-03-07T21:20:22.122Z,33.57
2024-03-07T21:22:51.259Z,37.80
2024-03-07T21:25:19.940Z,35.67
2024-03-07T21:27:51.657Z,33.23
2024-03-07T21:30:22.053Z,31.80
2024-03-07T21:32:54.549Z,32.40
2024-03-07T21:35:21.657Z,35.37
2024-03-07T21:37:49.965Z,33.43
2024-03-07T21:40:18.358Z,33.33
2024-03-07T21:42:46.400Z,36.87
2024-03-07T21:45:13.310Z,33.80
2024-03-07T21:47:41.782Z,37.73
2024-03-07T21:50:15.484Z,38.37
2024-03-07T21:52:47.053Z,40.50
2024-03-07T21:55:17.660Z,37.93
2024-03-07T21:57:44.878Z,34.77
2024-03-07T22:00:17.621Z,36.87
2024-03-07T22:02:59.359Z,28.77
2024-03-07T22:05:32.922Z,38.37
2024-03-07T22:08:00.679Z,37.13
2024-03-07T22:10:28.298Z,35.10
2024-03-07T22:12:55.519Z,36.23
2024-03-07T22:15:23.124Z,34.97
2024-03-07T22:17:53.721Z,36.53
2024-03-07T22:20:23.809Z,38.10
2024-03-07T22:22:52.097Z,44.07
2024-03-07T22:25:21.687Z,38.67
2024-03-07T22:27:52.051Z,36.20
2024-03-07T22:30:23.814Z,36.40
2024-03-07T22:32:52.482Z,35.97
2024-03-07T22:35:19.936Z,38.77
2024-03-07T22:37:52.286Z,36.47
2024-03-07T22:40:24.831Z,32.10
2024-03-07T22:42:53.131Z,34.53
2024-03-07T22:45:20.342Z,40.47
2024-03-07T22:47:47.609Z,38.97
2024-03-07T22:50:26.216Z,37.47
2024-03-07T22:52:57.539Z,37.10
2024-03-07T22:55:24.831Z,39.97
2024-03-07T22:57:52.043Z,40.07
2024-03-07T23:00:26.172Z,36.37
2024-03-07T23:02:53.894Z,38.13
2024-03-07T23:05:22.018Z,35.77
2024-03-07T23:07:49.200Z,34.30
2024-03-07T23:10:16.856Z,38.70
2024-03-07T23:12:46.192Z,32.93
2024-03-07T23:15:14.287Z,36.27
2024-03-07T23:17:46.026Z,41.10
2024-03-07T23:20:23.680Z,35.40
2024-03-07T23:22:58.971Z,38.17
2024-03-07T23:25:27.429Z,36.23
2024-03-07T23:27:55.423Z,36.33
2024-03-07T23:30:24.542Z,30.50
2024-03-07T23:32:54.208Z,37.83
2024-03-07T23:35:21.838Z,40.90
2024-03-07T23:37:49.412Z,36.27
2024-03-07T23:40:16.800Z,39.33
2024-03-07T23:42:45.034Z,34.17
2024-03-07T23:45:15.546Z,33.57
2024-03-07T23:47:43.824Z,35.33
2024-03-07T23:50:13.092Z,37.50
2024-03-07T23:52:41.652Z,41.73
2024-03-07T23:55:12.338Z,33.80
2024-03-07T23:57:43.881Z,36.17
